Air Navigation Services of Czech Republic
Airport: LKPD Updated:  22.06.2017 23:06:15  UTC
 METAR LKPD 22.06. 23:00 ...
METAR LKPD 222300Z 11008KT 9999 FEW040CB BKN100 18/18 Q1010 RETSRA=
 TAF LKPD 22.06. 17:00 ...
TAF LKPD 221700Z 2218/2318 20008KT CAVOK      TEMPO 2218/2306 24014G30KT 4000 TSRA BKN020CB      BECMG 2306/2308 29014G28KT BKN030      PROB40 TEMPO 2306/2312 6000 SHRA SCT030TCU      BECMG 2314/2316 CAVOK=